sensor_id;sensor_type;location;lat;lon;timestamp;pressure;altitude;pressure_sealevel;temperature;humidity
38939;BME280;24211;49.980;19.776;2022-12-18T00:01:34;100851.22;;;0.64;100.00
38939;BME280;24211;49.980;19.776;2022-12-18T00:04:05;100859.00;;;0.65;100.00
38939;BME280;24211;49.980;19.776;2022-12-18T00:06:35;100865.91;;;0.66;100.00
38939;BME280;24211;49.980;19.776;2022-12-18T00:09:03;100872.53;;;0.61;100.00
38939;BME280;24211;49.980;19.776;2022-12-18T00:11:31;100873.63;;;0.58;100.00
38939;BME280;24211;49.980;19.776;2022-12-18T00:13:59;100881.38;;;0.60;100.00
38939;BME280;24211;49.980;19.776;2022-12-18T00:16:28;100888.31;;;0.61;100.00
38939;BME280;24211;49.980;19.776;2022-12-18T00:18:57;100881.13;;;0.63;100.00
38939;BME280;24211;49.980;19.776;2022-12-18T00:21:26;100887.81;;;0.67;100.00
38939;BME280;24211;49.980;19.776;2022-12-18T00:23:54;100895.00;;;0.65;100.00
38939;BME280;24211;49.980;19.776;2022-12-18T00:26:29;100886.41;;;0.63;100.00
38939;BME280;24211;49.980;19.776;2022-12-18T00:29:04;100888.31;;;0.61;100.00
38939;BME280;24211;49.980;19.776;2022-12-18T00:31:32;100892.59;;;0.62;100.00
38939;BME280;24211;49.980;19.776;2022-12-18T00:34:02;100896.69;;;0.66;100.00
38939;BME280;24211;49.980;19.776;2022-12-18T00:36:33;100895.94;;;0.64;100.00
38939;BME280;24211;49.980;19.776;2022-12-18T00:39:04;100896.91;;;0.63;100.00
38939;BME280;24211;49.980;19.776;2022-12-18T00:41:32;100913.41;;;0.65;100.00
38939;BME280;24211;49.980;19.776;2022-12-18T00:44:19;100900.25;;;0.65;100.00
38939;BME280;24211;49.980;19.776;2022-12-18T00:46:47;100913.41;;;0.65;100.00
38939;BME280;24211;49.980;19.776;2022-12-18T00:49:18;100911.72;;;0.64;100.00
38939;BME280;24211;49.980;19.776;2022-12-18T00:51:47;100911.03;;;0.62;100.00
38939;BME280;24211;49.980;19.776;2022-12-18T00:54:16;100916.03;;;0.65;100.00
38939;BME280;24211;49.980;19.776;2022-12-18T00:56:43;100918.69;;;0.65;100.00
38939;BME280;24211;49.980;19.776;2022-12-18T00:59:18;100925.63;;;0.66;100.00
38939;BME280;24211;49.980;19.776;2022-12-18T01:01:46;100918.31;;;0.70;100.00
38939;BME280;24211;49.980;19.776;2022-12-18T01:04:14;100933.00;;;0.72;100.00
38939;BME280;24211;49.980;19.776;2022-12-18T01:06:44;100929.44;;;0.73;100.00
38939;BME280;24211;49.980;19.776;2022-12-18T01:09:12;100941.59;;;0.74;100.00
38939;BME280;24211;49.980;19.776;2022-12-18T01:11:39;100928.59;;;0.73;100.00
38939;BME280;24211;49.980;19.776;2022-12-18T01:14:07;100938.16;;;0.74;100.00
38939;BME280;24211;49.980;19.776;2022-12-18T01:16:36;100946.06;;;0.74;100.00
38939;BME280;24211;49.980;19.776;2022-12-18T01:19:04;100946.88;;;0.74;100.00
38939;BME280;24211;49.980;19.776;2022-12-18T01:21:32;100950.72;;;0.70;100.00
38939;BME280;24211;49.980;19.776;2022-12-18T01:24:05;100949.78;;;0.71;100.00
38939;BME280;24211;49.980;19.776;2022-12-18T01:26:33;100947.00;;;0.73;100.00
38939;BME280;24211;49.980;19.776;2022-12-18T01:29:00;100953.81;;;0.75;100.00
38939;BME280;24211;49.980;19.776;2022-12-18T01:31:31;100956.31;;;0.77;100.00
38939;BME280;24211;49.980;19.776;2022-12-18T01:34:04;100957.16;;;0.77;100.00
38939;BME280;24211;49.980;19.776;2022-12-18T01:36:34;100968.53;;;0.78;100.00
38939;BME280;24211;49.980;19.776;2022-12-18T01:39:07;100960.63;;;0.78;100.00
38939;BME280;24211;49.980;19.776;2022-12-18T01:41:35;100963.84;;;0.81;100.00
38939;BME280;24211;49.980;19.776;2022-12-18T01:44:57;100960.25;;;0.82;100.00
38939;BME280;24211;49.980;19.776;2022-12-18T01:47:48;100961.09;;;0.83;100.00
38939;BME280;24211;49.980;19.776;2022-12-18T01:50:32;100968.16;;;0.82;100.00
38939;BME280;24211;49.980;19.776;2022-12-18T01:53:17;100965.53;;;0.82;100.00
38939;BME280;24211;49.980;19.776;2022-12-18T01:55:53;100968.03;;;0.84;100.00
38939;BME280;24211;49.980;19.776;2022-12-18T01:58:35;100975.69;;;0.87;100.00
38939;BME280;24211;49.980;19.776;2022-12-18T02:01:05;100971.25;;;0.87;100.00
38939;BME280;24211;49.980;19.776;2022-12-18T02:03:33;100977.38;;;0.88;100.00
38939;BME280;24211;49.980;19.776;2022-12-18T02:06:12;100989.44;;;0.90;100.00
38939;BME280;24211;49.980;19.776;2022-12-18T02:09:10;100986.09;;;0.88;100.00
38939;BME280;24211;49.980;19.776;2022-12-18T02:12:13;100991.09;;;0.91;100.00
38939;BME280;24211;49.980;19.776;2022-12-18T02:15:09;100999.00;;;0.91;100.00
38939;BME280;24211;49.980;19.776;2022-12-18T02:18:03;101002.47;;;0.92;100.00
38939;BME280;24211;49.980;19.776;2022-12-18T02:20:40;101010.50;;;0.90;100.00
38939;BME280;24211;49.980;19.776;2022-12-18T02:26:30;101012.16;;;0.91;100.00
38939;BME280;24211;49.980;19.776;2022-12-18T02:29:17;101014.69;;;0.93;100.00
38939;BME280;24211;49.980;19.776;2022-12-18T02:31:57;101020.78;;;0.93;100.00
38939;BME280;24211;49.980;19.776;2022-12-18T02:34:31;101018.88;;;0.95;100.00
38939;BME280;24211;49.980;19.776;2022-12-18T02:37:04;101015.25;;;0.96;100.00
38939;BME280;24211;49.980;19.776;2022-12-18T02:39:37;101019.59;;;0.97;100.00
38939;BME280;24211;49.980;19.776;2022-12-18T02:42:06;101024.72;;;0.99;100.00
38939;BME280;24211;49.980;19.776;2022-12-18T02:44:49;101028.31;;;0.98;100.00
38939;BME280;24211;49.980;19.776;2022-12-18T02:47:27;101034.44;;;0.98;100.00
38939;BME280;24211;49.980;19.776;2022-12-18T02:56:18;101038.00;;;0.97;100.00
38939;BME280;24211;49.980;19.776;2022-12-18T02:59:13;101041.34;;;0.99;100.00
38939;BME280;24211;49.980;19.776;2022-12-18T03:02:09;101048.31;;;1.00;100.00
38939;BME280;24211;49.980;19.776;2022-12-18T03:05:16;101049.97;;;1.01;100.00
38939;BME280;24211;49.980;19.776;2022-12-18T03:07:55;101048.03;;;1.03;100.00
38939;BME280;24211;49.980;19.776;2022-12-18T03:10:30;101055.00;;;1.04;100.00
38939;BME280;24211;49.980;19.776;2022-12-18T03:13:09;101058.47;;;1.05;100.00
38939;BME280;24211;49.980;19.776;2022-12-18T03:15:48;101056.69;;;1.05;100.00
38939;BME280;24211;49.980;19.776;2022-12-18T03:18:34;101063.72;;;1.05;100.00
38939;BME280;24211;49.980;19.776;2022-12-18T03:21:06;101065.53;;;1.04;100.00
38939;BME280;24211;49.980;19.776;2022-12-18T03:23:44;101057.50;;;1.06;100.00
38939;BME280;24211;49.980;19.776;2022-12-18T03:26:19;101056.53;;;1.07;100.00
38939;BME280;24211;49.980;19.776;2022-12-18T03:29:07;101064.44;;;1.07;100.00
38939;BME280;24211;49.980;19.776;2022-12-18T03:31:40;101067.78;;;1.09;100.00
38939;BME280;24211;49.980;19.776;2022-12-18T03:34:17;101072.94;;;1.10;100.00
38939;BME280;24211;49.980;19.776;2022-12-18T03:36:47;101072.81;;;1.12;100.00
38939;BME280;24211;49.980;19.776;2022-12-18T03:39:15;101077.00;;;1.14;100.00
38939;BME280;24211;49.980;19.776;2022-12-18T03:42:04;101074.50;;;1.13;100.00
38939;BME280;24211;49.980;19.776;2022-12-18T03:45:02;101085.84;;;1.13;100.00
38939;BME280;24211;49.980;19.776;2022-12-18T03:48:02;101082.50;;;1.11;100.00
38939;BME280;24211;49.980;19.776;2022-12-18T03:51:03;101085.84;;;1.13;100.00
38939;BME280;24211;49.980;19.776;2022-12-18T03:53:51;101080.56;;;1.13;100.00
38939;BME280;24211;49.980;19.776;2022-12-18T03:56:30;101099.00;;;1.13;100.00
38939;BME280;24211;49.980;19.776;2022-12-18T03:59:01;101101.53;;;1.15;100.00
38939;BME280;24211;49.980;19.776;2022-12-18T04:01:34;101102.63;;;1.12;100.00
38939;BME280;24211;49.980;19.776;2022-12-18T04:04:04;101102.50;;;1.14;100.00
38939;BME280;24211;49.980;19.776;2022-12-18T04:06:37;101108.59;;;1.14;100.00
38939;BME280;24211;49.980;19.776;2022-12-18T04:09:07;101108.59;;;1.14;100.00
38939;BME280;24211;49.980;19.776;2022-12-18T04:11:41;101113.84;;;1.14;100.00
38939;BME280;24211;49.980;19.776;2022-12-18T04:14:13;101113.72;;;1.16;100.00
38939;BME280;24211;49.980;19.776;2022-12-18T04:16:45;101105.81;;;1.16;100.00
38939;BME280;24211;49.980;19.776;2022-12-18T04:19:15;101119.97;;;1.15;100.00
38939;BME280;24211;49.980;19.776;2022-12-18T04:21:44;101122.47;;;1.16;100.00
38939;BME280;24211;49.980;19.776;2022-12-18T04:24:13;101129.44;;;1.17;100.00
38939;BME280;24211;49.980;19.776;2022-12-18T04:26:49;101136.34;;;1.18;100.00
38939;BME280;24211;49.980;19.776;2022-12-18T04:29:21;101138.03;;;1.19;100.00
38939;BME280;24211;49.980;19.776;2022-12-18T04:31:49;101132.78;;;1.19;100.00
38939;BME280;24211;49.980;19.776;2022-12-18T04:34:16;101138.03;;;1.19;100.00
38939;BME280;24211;49.980;19.776;2022-12-18T04:36:49;101135.41;;;1.19;100.00
38939;BME280;24211;49.980;19.776;2022-12-18T04:39:17;101144.97;;;1.20;100.00
38939;BME280;24211;49.980;19.776;2022-12-18T04:41:45;101137.81;;;1.22;100.00
38939;BME280;24211;49.980;19.776;2022-12-18T04:44:13;101147.50;;;1.22;100.00
38939;BME280;24211;49.980;19.776;2022-12-18T04:46:41;101148.34;;;1.22;100.00
38939;BME280;24211;49.980;19.776;2022-12-18T04:49:09;101150.00;;;1.23;100.00
38939;BME280;24211;49.980;19.776;2022-12-18T04:51:37;101141.16;;;1.24;100.00
38939;BME280;24211;49.980;19.776;2022-12-18T04:54:05;101146.41;;;1.24;100.00
38939;BME280;24211;49.980;19.776;2022-12-18T04:56:32;101158.59;;;1.25;100.00
38939;BME280;24211;49.980;19.776;2022-12-18T04:58:59;101159.44;;;1.26;100.00
38939;BME280;24211;49.980;19.776;2022-12-18T05:01:28;101160.28;;;1.26;100.00
38939;BME280;24211;49.980;19.776;2022-12-18T05:04:03;101165.56;;;1.26;100.00
38939;BME280;24211;49.980;19.776;2022-12-18T05:06:30;101155.03;;;1.26;100.00
38939;BME280;24211;49.980;19.776;2022-12-18T05:08:58;101161.97;;;1.27;100.00
38939;BME280;24211;49.980;19.776;2022-12-18T05:11:25;101164.63;;;1.27;100.00
38939;BME280;24211;49.980;19.776;2022-12-18T05:13:52;101165.34;;;1.29;100.00
38939;BME280;24211;49.980;19.776;2022-12-18T05:16:19;101165.44;;;1.28;100.00
38939;BME280;24211;49.980;19.776;2022-12-18T05:18:46;101165.34;;;1.29;100.00
38939;BME280;24211;49.980;19.776;2022-12-18T05:21:14;101166.16;;;1.30;100.00
38939;BME280;24211;49.980;19.776;2022-12-18T05:23:41;101173.09;;;1.31;100.00
38939;BME280;24211;49.980;19.776;2022-12-18T05:26:16;101165.34;;;1.29;100.00
38939;BME280;24211;49.980;19.776;2022-12-18T05:28:44;101178.50;;;1.29;100.00
38939;BME280;24211;49.980;19.776;2022-12-18T05:31:12;101170.59;;;1.29;100.00
38939;BME280;24211;49.980;19.776;2022-12-18T05:33:40;101175.88;;;1.29;100.00
38939;BME280;24211;49.980;19.776;2022-12-18T05:36:09;101189.75;;;1.31;100.00
38939;BME280;24211;49.980;19.776;2022-12-18T05:38:38;101188.06;;;1.30;100.00
38939;BME280;24211;49.980;19.776;2022-12-18T05:41:07;101193.31;;;1.30;100.00
38939;BME280;24211;49.980;19.776;2022-12-18T05:43:37;101190.69;;;1.30;100.00
38939;BME280;24211;49.980;19.776;2022-12-18T05:46:10;101195.16;;;1.30;100.00
38939;BME280;24211;49.980;19.776;2022-12-18T05:48:38;101194.31;;;1.29;100.00
38939;BME280;24211;49.980;19.776;2022-12-18T05:51:09;101204.00;;;1.29;100.00
38939;BME280;24211;49.980;19.776;2022-12-18T05:53:38;101202.19;;;1.29;100.00
38939;BME280;24211;49.980;19.776;2022-12-18T05:56:10;101207.47;;;1.29;100.00
38939;BME280;24211;49.980;19.776;2022-12-18T05:58:38;101209.13;;;1.30;100.00
38939;BME280;24211;49.980;19.776;2022-12-18T06:01:20;101218.84;;;1.30;100.00
38939;BME280;24211;49.980;19.776;2022-12-18T06:03:47;101231.88;;;1.31;100.00
38939;BME280;24211;49.980;19.776;2022-12-18T06:06:18;101226.38;;;1.35;100.00
38939;BME280;24211;49.980;19.776;2022-12-18T06:08:46;101215.84;;;1.35;100.00
38939;BME280;24211;49.980;19.776;2022-12-18T06:11:21;101229.75;;;1.37;100.00
38939;BME280;24211;49.980;19.776;2022-12-18T06:13:54;101238.59;;;1.36;100.00
38939;BME280;24211;49.980;19.776;2022-12-18T06:16:27;101238.59;;;1.36;100.00
38939;BME280;24211;49.980;19.776;2022-12-18T06:19:00;101240.28;;;1.37;100.00
38939;BME280;24211;49.980;19.776;2022-12-18T06:21:29;101243.63;;;1.39;100.00
38939;BME280;24211;49.980;19.776;2022-12-18T06:23:57;101244.47;;;1.39;100.00
38939;BME280;24211;49.980;19.776;2022-12-18T06:26:25;101240.97;;;1.39;100.00
38939;BME280;24211;49.980;19.776;2022-12-18T06:28:54;101244.47;;;1.39;100.00
38939;BME280;24211;49.980;19.776;2022-12-18T06:31:21;101246.97;;;1.41;100.00
38939;BME280;24211;49.980;19.776;2022-12-18T06:33:49;101249.59;;;1.41;100.00
38939;BME280;24211;49.980;19.776;2022-12-18T06:36:17;101256.66;;;1.40;100.00
38939;BME280;24211;49.980;19.776;2022-12-18T06:38:44;101256.44;;;1.43;100.00
38939;BME280;24211;49.980;19.776;2022-12-18T06:41:17;101256.34;;;1.45;100.00
38939;BME280;24211;49.980;19.776;2022-12-18T06:43:45;101262.41;;;1.45;100.00
38939;BME280;24211;49.980;19.776;2022-12-18T06:46:12;101260.63;;;1.46;100.00
38939;BME280;24211;49.980;19.776;2022-12-18T06:48:40;101264.09;;;1.46;100.00
38939;BME280;24211;49.980;19.776;2022-12-18T06:51:08;101270.94;;;1.49;100.00
38939;BME280;24211;49.980;19.776;2022-12-18T06:53:35;101263.97;;;1.48;100.00
38939;BME280;24211;49.980;19.776;2022-12-18T06:56:06;101269.25;;;1.48;100.00
38939;BME280;24211;49.980;19.776;2022-12-18T06:58:38;101280.53;;;1.50;100.00
38939;BME280;24211;49.980;19.776;2022-12-18T07:01:09;101283.16;;;1.50;100.00
38939;BME280;24211;49.980;19.776;2022-12-18T07:03:41;101289.25;;;1.50;100.00
38939;BME280;24211;49.980;19.776;2022-12-18T07:06:19;101285.78;;;1.50;100.00
38939;BME280;24211;49.980;19.776;2022-12-18T07:08:47;101296.34;;;1.50;100.00
38939;BME280;24211;49.980;19.776;2022-12-18T07:11:17;101302.31;;;1.52;100.00
38939;BME280;24211;49.980;19.776;2022-12-18T07:13:45;101300.41;;;1.54;100.00
38939;BME280;24211;49.980;19.776;2022-12-18T07:16:21;101303.97;;;1.53;100.00
38939;BME280;24211;49.980;19.776;2022-12-18T07:18:54;101311.66;;;1.56;100.00
38939;BME280;24211;49.980;19.776;2022-12-18T07:22:19;101314.50;;;1.53;100.00
38939;BME280;24211;49.980;19.776;2022-12-18T07:24:46;101319.78;;;1.53;100.00
38939;BME280;24211;49.980;19.776;2022-12-18T07:27:13;101317.16;;;1.53;100.00
38939;BME280;24211;49.980;19.776;2022-12-18T07:29:40;101321.25;;;1.57;100.00
38939;BME280;24211;49.980;19.776;2022-12-18T07:32:08;101326.53;;;1.57;100.00
38939;BME280;24211;49.980;19.776;2022-12-18T07:34:35;101327.47;;;1.56;100.00
38939;BME280;24211;49.980;19.776;2022-12-18T07:37:03;101327.38;;;1.57;100.00
38939;BME280;24211;49.980;19.776;2022-12-18T07:39:30;101333.44;;;1.58;100.00
38939;BME280;24211;49.980;19.776;2022-12-18T07:41:57;101340.53;;;1.57;100.00
38939;BME280;24211;49.980;19.776;2022-12-18T07:44:43;101343.16;;;1.57;100.00
38939;BME280;24211;49.980;19.776;2022-12-18T07:47:11;101342.34;;;1.57;100.00
38939;BME280;24211;49.980;19.776;2022-12-18T07:49:38;101343.16;;;1.57;100.00
38939;BME280;24211;49.980;19.776;2022-12-18T07:52:05;101342.34;;;1.57;100.00
38939;BME280;24211;49.980;19.776;2022-12-18T07:54:32;101349.97;;;1.60;100.00
38939;BME280;24211;49.980;19.776;2022-12-18T07:56:59;101363.16;;;1.60;100.00
38939;BME280;24211;49.980;19.776;2022-12-18T07:59:27;101353.59;;;1.59;100.00
38939;BME280;24211;49.980;19.776;2022-12-18T08:01:54;101366.75;;;1.59;100.00
38939;BME280;24211;49.980;19.776;2022-12-18T08:04:21;101352.59;;;1.60;100.00
38939;BME280;24211;49.980;19.776;2022-12-18T08:06:48;101353.44;;;1.60;100.00
38939;BME280;24211;49.980;19.776;2022-12-18T08:09:16;101353.59;;;1.59;100.00
38939;BME280;24211;49.980;19.776;2022-12-18T08:11:43;101353.44;;;1.60;100.00
38939;BME280;24211;49.980;19.776;2022-12-18T08:14:10;101354.31;;;1.61;100.00
38939;BME280;24211;49.980;19.776;2022-12-18T08:16:37;101347.13;;;1.63;100.00
38939;BME280;24211;49.980;19.776;2022-12-18T08:19:05;101351.53;;;1.62;100.00
38939;BME280;24211;49.980;19.776;2022-12-18T08:21:32;101361.25;;;1.62;100.00
38939;BME280;24211;49.980;19.776;2022-12-18T08:24:01;101356.94;;;1.61;100.00
38939;BME280;24211;49.980;19.776;2022-12-18T08:26:31;101362.91;;;1.63;100.00
38939;BME280;24211;49.980;19.776;2022-12-18T08:33:12;101369.88;;;1.64;100.00
38939;BME280;24211;49.980;19.776;2022-12-18T08:35:39;101362.91;;;1.63;100.00
38939;BME280;24211;49.980;19.776;2022-12-18T08:38:12;101364.00;;;1.60;100.00
38939;BME280;24211;49.980;19.776;2022-12-18T08:40:39;101369.16;;;1.62;100.00
38939;BME280;24211;49.980;19.776;2022-12-18T08:43:09;101371.81;;;1.62;100.00
38939;BME280;24211;49.980;19.776;2022-12-18T09:23:16;101405.09;;;1.63;100.00
38939;BME280;24211;49.980;19.776;2022-12-18T09:25:43;101412.78;;;1.66;100.00
38939;BME280;24211;49.980;19.776;2022-12-18T09:28:17;101414.47;;;1.67;100.00
38939;BME280;24211;49.980;19.776;2022-12-18T09:30:48;101418.75;;;1.68;100.00
38939;BME280;24211;49.980;19.776;2022-12-18T09:33:17;101421.53;;;1.66;100.00
38939;BME280;24211;49.980;19.776;2022-12-18T09:35:47;101417.91;;;1.67;100.00
38939;BME280;24211;49.980;19.776;2022-12-18T09:49:17;101412.63;;;1.67;100.00
38939;BME280;24211;49.980;19.776;2022-12-18T10:28:20;101408.44;;;1.65;100.00
38939;BME280;24211;49.980;19.776;2022-12-18T10:30:47;101408.44;;;1.65;100.00
38939;BME280;24211;49.980;19.776;2022-12-18T10:33:22;101413.72;;;1.65;100.00
38939;BME280;24211;49.980;19.776;2022-12-18T10:57:34;101396.00;;;1.67;100.00
38939;BME280;24211;49.980;19.776;2022-12-18T11:00:38;101393.25;;;1.68;100.00
38939;BME280;24211;49.980;19.776;2022-12-18T11:03:36;101388.81;;;1.69;100.00
38939;BME280;24211;49.980;19.776;2022-12-18T11:06:18;101388.81;;;1.69;100.00
38939;BME280;24211;49.980;19.776;2022-12-18T11:09:29;101385.47;;;1.67;100.00
38939;BME280;24211;49.980;19.776;2022-12-18T11:12:14;101379.13;;;1.69;100.00
38939;BME280;24211;49.980;19.776;2022-12-18T11:14:52;101369.16;;;1.73;100.00
38939;BME280;24211;49.980;19.776;2022-12-18T11:17:35;101376.34;;;1.71;100.00
38939;BME280;24211;49.980;19.776;2022-12-18T11:20:06;101368.31;;;1.72;100.00
38939;BME280;24211;49.980;19.776;2022-12-18T11:23:03;101360.31;;;1.74;100.00
38939;BME280;24211;49.980;19.776;2022-12-18T11:25:32;101348.09;;;1.73;100.00
38939;BME280;24211;49.980;19.776;2022-12-18T11:31:25;101360.31;;;1.74;100.00
38939;BME280;24211;49.980;19.776;2022-12-18T11:36:59;101356.00;;;1.73;100.00
38939;BME280;24211;49.980;19.776;2022-12-18T11:39:52;101347.25;;;1.72;100.00
38939;BME280;24211;49.980;19.776;2022-12-18T11:42:39;101354.06;;;1.75;100.00
38939;BME280;24211;49.980;19.776;2022-12-18T11:45:51;101355.03;;;1.74;100.00
38939;BME280;24211;49.980;19.776;2022-12-18T11:48:28;101359.34;;;1.75;100.00
38939;BME280;24211;49.980;19.776;2022-12-18T11:51:01;101360.09;;;1.77;100.00
38939;BME280;24211;49.980;19.776;2022-12-18T11:53:30;101362.72;;;1.77;100.00
38939;BME280;24211;49.980;19.776;2022-12-18T11:59:15;101367.03;;;1.78;100.00
38939;BME280;24211;49.980;19.776;2022-12-18T12:04:42;101365.22;;;1.78;100.00
38939;BME280;24211;49.980;19.776;2022-12-18T12:18:48;101367.72;;;1.80;100.00
38939;BME280;24211;49.980;19.776;2022-12-18T12:25:52;101361.50;;;1.81;100.00
38939;BME280;24211;49.980;19.776;2022-12-18T12:38:57;101392.91;;;1.84;100.00
38939;BME280;24211;49.980;19.776;2022-12-18T12:41:32;101394.56;;;1.85;100.00
38939;BME280;24211;49.980;19.776;2022-12-18T12:44:34;101408.75;;;1.84;100.00
38939;BME280;24211;49.980;19.776;2022-12-18T12:47:20;101412.09;;;1.86;100.00
38939;BME280;24211;49.980;19.776;2022-12-18T12:49:50;101403.47;;;1.84;100.00
38939;BME280;24211;49.980;19.776;2022-12-18T12:52:31;101411.38;;;1.84;100.00
38939;BME280;24211;49.980;19.776;2022-12-18T13:01:09;101420.94;;;1.85;100.00
38939;BME280;24211;49.980;19.776;2022-12-18T13:07:03;101428.84;;;1.85;100.00
38939;BME280;24211;49.980;19.776;2022-12-18T13:09:34;101432.47;;;1.84;100.00
38939;BME280;24211;49.980;19.776;2022-12-18T13:12:11;101430.63;;;1.84;100.00
38939;BME280;24211;49.980;19.776;2022-12-18T13:15:37;101430.63;;;1.84;100.00
38939;BME280;24211;49.980;19.776;2022-12-18T13:20:49;101430.41;;;1.87;100.00
38939;BME280;24211;49.980;19.776;2022-12-18T13:23:35;101426.00;;;1.88;100.00
38939;BME280;24211;49.980;19.776;2022-12-18T13:34:26;101435.69;;;1.87;100.00
38939;BME280;24211;49.980;19.776;2022-12-18T13:40:00;101439.88;;;1.90;100.00
38939;BME280;24211;49.980;19.776;2022-12-18T13:42:38;101432.94;;;1.89;100.00
38939;BME280;24211;49.980;19.776;2022-12-18T13:45:44;101451.41;;;1.89;100.00
38939;BME280;24211;49.980;19.776;2022-12-18T13:48:24;101453.19;;;1.88;100.00
38939;BME280;24211;49.980;19.776;2022-12-18T13:56:47;101463.75;;;1.88;100.00
38939;BME280;24211;49.980;19.776;2022-12-18T13:59:34;101464.59;;;1.89;100.00
38939;BME280;24211;49.980;19.776;2022-12-18T14:02:17;101475.13;;;1.89;100.00
38939;BME280;24211;49.980;19.776;2022-12-18T14:04:46;101468.16;;;1.88;100.00
38939;BME280;24211;49.980;19.776;2022-12-18T14:07:17;101464.59;;;1.89;100.00
38939;BME280;24211;49.980;19.776;2022-12-18T14:09:55;101464.59;;;1.89;100.00
38939;BME280;24211;49.980;19.776;2022-12-18T14:12:50;101468.16;;;1.88;100.00
38939;BME280;24211;49.980;19.776;2022-12-18T14:15:41;101474.16;;;1.90;100.00
38939;BME280;24211;49.980;19.776;2022-12-18T14:18:38;101466.25;;;1.90;100.00
38939;BME280;24211;49.980;19.776;2022-12-18T14:21:23;101472.38;;;1.90;100.00
38939;BME280;24211;49.980;19.776;2022-12-18T14:24:18;101462.66;;;1.91;100.00
38939;BME280;24211;49.980;19.776;2022-12-18T14:26:48;101465.31;;;1.91;100.00
38939;BME280;24211;49.980;19.776;2022-12-18T14:29:27;101468.78;;;1.91;100.00
38939;BME280;24211;49.980;19.776;2022-12-18T14:32:06;101478.25;;;1.94;100.00
38939;BME280;24211;49.980;19.776;2022-12-18T14:34:39;101470.59;;;1.91;100.00
38939;BME280;24211;49.980;19.776;2022-12-18T14:37:11;101482.91;;;1.90;100.00
38939;BME280;24211;49.980;19.776;2022-12-18T14:39:38;101480.16;;;1.92;100.00
38939;BME280;24211;49.980;19.776;2022-12-18T14:42:11;101478.50;;;1.91;100.00
38939;BME280;24211;49.980;19.776;2022-12-18T14:44:38;101489.03;;;1.91;100.00
38939;BME280;24211;49.980;19.776;2022-12-18T14:47:25;101488.06;;;1.92;100.00
38939;BME280;24211;49.980;19.776;2022-12-18T14:49:53;101488.81;;;1.94;100.00
38939;BME280;24211;49.980;19.776;2022-12-18T14:52:27;101485.19;;;1.95;100.00
38939;BME280;24211;49.980;19.776;2022-12-18T14:54:56;101485.19;;;1.95;100.00
38939;BME280;24211;49.980;19.776;2022-12-18T14:57:31;101482.78;;;1.92;100.00
38939;BME280;24211;49.980;19.776;2022-12-18T15:00:15;101489.63;;;1.94;100.00
38939;BME280;24211;49.980;19.776;2022-12-18T15:02:55;101487.84;;;1.95;100.00
38939;BME280;24211;49.980;19.776;2022-12-18T15:05:31;101483.53;;;1.94;100.00
38939;BME280;24211;49.980;19.776;2022-12-18T15:08:00;101487.84;;;1.95;100.00
38939;BME280;24211;49.980;19.776;2022-12-18T15:10:32;101486.88;;;1.96;100.00
38939;BME280;24211;49.980;19.776;2022-12-18T15:18:30;101493.59;;;1.89;100.00
38939;BME280;24211;49.980;19.776;2022-12-18T15:21:09;101494.75;;;1.85;100.00
38939;BME280;24211;49.980;19.776;2022-12-18T15:26:14;101509.50;;;1.87;100.00
38939;BME280;24211;49.980;19.776;2022-12-18T15:28:56;101513.72;;;1.90;100.00
38939;BME280;24211;49.980;19.776;2022-12-18T15:31:34;101506.50;;;1.92;100.00
38939;BME280;24211;49.980;19.776;2022-12-18T15:36:34;101513.41;;;1.71;100.00
38939;BME280;24211;49.980;19.776;2022-12-18T15:39:05;101518.69;;;1.71;100.00
38939;BME280;24211;49.980;19.776;2022-12-18T15:41:35;101522.09;;;1.60;100.00
38939;BME280;24211;49.980;19.776;2022-12-18T15:44:24;101518.19;;;1.66;100.00
38939;BME280;24211;49.980;19.776;2022-12-18T15:46:51;101521.19;;;1.72;100.00
38939;BME280;24211;49.980;19.776;2022-12-18T15:49:18;101521.09;;;1.74;100.00
38939;BME280;24211;49.980;19.776;2022-12-18T15:51:54;101529.94;;;1.73;100.00
38939;BME280;24211;49.980;19.776;2022-12-18T15:54:23;101526.88;;;1.79;100.00
38939;BME280;24211;49.980;19.776;2022-12-18T15:57:12;101528.94;;;1.86;100.00
38939;BME280;24211;49.980;19.776;2022-12-18T15:59:55;101528.81;;;1.88;100.00
38939;BME280;24211;49.980;19.776;2022-12-18T16:02:26;101528.94;;;1.86;100.00
38939;BME280;24211;49.980;19.776;2022-12-18T16:04:56;101527.88;;;1.89;100.00
38939;BME280;24211;49.980;19.776;2022-12-18T16:07:23;101527.13;;;1.87;100.00
38939;BME280;24211;49.980;19.776;2022-12-18T16:09:56;101537.63;;;1.76;100.00
38939;BME280;24211;49.980;19.776;2022-12-18T16:12:26;101535.22;;;1.73;100.00
38939;BME280;24211;49.980;19.776;2022-12-18T16:14:53;101541.63;;;1.81;100.00
38939;BME280;24211;49.980;19.776;2022-12-18T16:17:20;101539.56;;;1.85;100.00
38939;BME280;24211;49.980;19.776;2022-12-18T16:19:47;101541.16;;;1.87;100.00
38939;BME280;24211;49.980;19.776;2022-12-18T16:22:21;101550.84;;;1.87;100.00
38939;BME280;24211;49.980;19.776;2022-12-18T16:24:52;101555.91;;;1.90;100.00
38939;BME280;24211;49.980;19.776;2022-12-18T16:27:20;101552.31;;;1.91;100.00
38939;BME280;24211;49.980;19.776;2022-12-18T16:29:49;101557.59;;;1.91;100.00
38939;BME280;24211;49.980;19.776;2022-12-18T16:32:21;101555.03;;;1.89;100.00
38939;BME280;24211;49.980;19.776;2022-12-18T16:34:49;101561.38;;;1.87;100.00
38939;BME280;24211;49.980;19.776;2022-12-18T16:37:16;101564.78;;;1.89;100.00